Time;durP1;ratioP1;P1;durP2;ratioP2;P2;SDS_P1;SDS_P2;PMS_P1;PMS_P2;Temp;Humidity;BMP_temperature;BMP_pressure;BME280_temperature;BME280_humidity;BME280_pressure;Samples;Min_cycle;Max_cycle;Signal;HPM_P1;HPM_P2
2022/12/04 05:57:40;;;;;;;1.67;1.50;;;2.50;98.20;;;;;;4958685;22;20489;-74
2022/12/04 06:00:09;;;;;;;1.63;1.40;;;2.50;98.20;;;;;;4985801;28;20479;-74
2022/12/04 06:02:37;;;;;;;1.60;1.40;;;2.50;98.20;;;;;;4989484;28;20493;-74
2022/12/04 06:05:05;;;;;;;1.60;1.40;;;2.50;98.20;;;;;;4988977;28;20493;-73
2022/12/04 06:07:32;;;;;;;1.70;1.60;;;2.40;98.20;;;;;;4987776;28;20504;-73
2022/12/04 06:09:59;;;;;;;1.70;1.50;;;2.40;98.20;;;;;;4988911;28;20463;-73
2022/12/04 06:12:26;;;;;;;1.63;1.50;;;2.30;98.20;;;;;;4989771;28;20468;-73
2022/12/04 06:14:54;;;;;;;1.67;1.50;;;2.30;98.20;;;;;;4984040;28;20469;-72
2022/12/04 06:17:21;;;;;;;1.67;1.40;;;2.20;98.20;;;;;;4987795;28;20515;-73
2022/12/04 06:19:49;;;;;;;1.70;1.50;;;2.20;98.20;;;;;;4984699;28;20469;-73
2022/12/04 06:22:15;;;;;;;1.70;1.50;;;2.30;98.20;;;;;;4989600;28;20515;-73
2022/12/04 06:24:42;;;;;;;1.63;1.50;;;2.30;98.20;;;;;;4989942;28;20496;-73
2022/12/04 06:27:09;;;;;;;1.70;1.50;;;2.20;98.20;;;;;;4986608;28;20472;-72
2022/12/04 06:29:36;;;;;;;1.67;1.50;;;2.20;98.20;;;;;;4989336;28;20499;-74
2022/12/04 06:32:05;;;;;;;1.70;1.60;;;2.30;98.20;;;;;;4987344;28;20492;-72
2022/12/04 06:34:32;;;;;;;1.83;1.73;;;2.30;98.20;;;;;;4989765;28;20493;-73
2022/12/04 06:36:59;;;;;;;1.80;1.70;;;2.30;98.20;;;;;;4988718;28;20978;-73
2022/12/04 06:39:26;;;;;;;1.70;1.50;;;2.30;98.20;;;;;;4990013;28;21013;-73
2022/12/04 06:41:53;;;;;;;1.70;1.50;;;2.30;98.20;;;;;;4987791;28;20465;-73
2022/12/04 06:44:20;;;;;;;1.70;1.50;;;2.30;98.20;;;;;;4987239;28;20491;-73
2022/12/04 06:46:49;;;;;;;1.67;1.50;;;2.30;98.20;;;;;;4987407;28;20495;-73
2022/12/04 06:49:21;;;;;;;1.70;1.50;;;2.30;98.20;;;;;;4989333;28;20495;-74
2022/12/04 06:51:48;;;;;;;1.67;1.50;;;2.30;98.20;;;;;;4986855;28;20512;-74
2022/12/04 06:54:15;;;;;;;1.67;1.50;;;2.40;98.20;;;;;;4989211;28;20542;-73
2022/12/04 06:56:42;;;;;;;1.80;1.70;;;2.40;98.20;;;;;;4988372;28;20461;-73
2022/12/04 06:59:11;;;;;;;1.70;1.60;;;2.40;98.20;;;;;;4986209;28;20575;-72
2022/12/04 07:01:38;;;;;;;1.70;1.47;;;2.30;98.20;;;;;;4987101;28;20977;-73
2022/12/04 07:04:05;;;;;;;1.63;1.50;;;2.30;98.20;;;;;;4989768;28;20869;-73
2022/12/04 07:06:36;;;;;;;1.77;1.67;;;2.30;98.20;;;;;;4988703;28;21002;-72
2022/12/04 07:09:06;;;;;;;1.70;1.50;;;2.30;98.20;;;;;;4988241;28;20476;-73
2022/12/04 07:11:34;;;;;;;1.67;1.40;;;2.20;98.20;;;;;;4986590;28;20459;-73
2022/12/04 07:14:00;;;;;;;1.70;1.50;;;2.20;98.20;;;;;;4987042;28;20568;-73
2022/12/04 07:16:28;;;;;;;1.67;1.40;;;2.20;98.20;;;;;;4988248;28;20465;-73
2022/12/04 07:18:56;;;;;;;1.70;1.60;;;2.30;98.20;;;;;;4988226;28;20481;-73
2022/12/04 07:21:25;;;;;;;1.60;1.47;;;2.30;98.20;;;;;;4987352;28;20499;-72
2022/12/04 07:23:54;;;;;;;1.70;1.57;;;2.30;98.20;;;;;;4987335;28;20868;-72
2022/12/04 07:26:22;;;;;;;1.80;1.70;;;2.30;98.20;;;;;;4984817;28;20468;-72
2022/12/04 07:28:49;;;;;;;1.63;1.50;;;2.30;98.20;;;;;;4986363;28;20473;-72
2022/12/04 07:31:26;;;;;;;1.67;1.50;;;2.30;98.20;;;;;;4990127;28;20496;-72
2022/12/04 07:33:54;;;;;;;1.70;1.50;;;2.30;98.20;;;;;;4986755;28;20457;-72
2022/12/04 07:36:22;;;;;;;1.70;1.50;;;2.30;98.20;;;;;;4987183;28;20487;-72
2022/12/04 07:38:51;;;;;;;1.70;1.50;;;2.30;98.20;;;;;;4987414;28;21020;-72
2022/12/04 07:41:19;;;;;;;1.60;1.40;;;2.40;98.20;;;;;;4987258;28;20476;-72
2022/12/04 07:43:46;;;;;;;4.23;3.50;;;2.40;98.20;;;;;;4986440;28;20488;-72
2022/12/04 07:46:15;;;;;;;1.67;1.40;;;2.40;98.20;;;;;;4987206;28;20466;-73
2022/12/04 07:48:43;;;;;;;1.70;1.60;;;2.40;98.20;;;;;;4985466;28;20496;-72
2022/12/04 07:51:12;;;;;;;1.60;1.40;;;2.40;98.20;;;;;;4987367;28;20492;-72
2022/12/04 07:53:39;;;;;;;1.63;1.50;;;2.30;98.20;;;;;;4986993;28;20476;-72
2022/12/04 07:56:07;;;;;;;1.67;1.50;;;2.30;98.20;;;;;;4985774;28;20488;-72
2022/12/04 07:58:35;;;;;;;1.70;1.50;;;2.30;98.20;;;;;;4985375;28;20877;-72
2022/12/04 08:01:06;;;;;;;1.60;1.50;;;2.30;98.20;;;;;;4987344;28;20461;-72
2022/12/04 08:03:33;;;;;;;1.70;1.50;;;2.30;98.20;;;;;;4986897;28;20457;-73
2022/12/04 08:06:01;;;;;;;1.70;1.50;;;2.30;98.20;;;;;;4982552;28;21172;-72
2022/12/04 08:08:29;;;;;;;1.70;1.60;;;2.30;98.20;;;;;;4988549;28;20481;-72
2022/12/04 08:10:56;;;;;;;4.67;4.37;;;2.30;98.20;;;;;;4988034;28;20891;-73
2022/12/04 08:13:23;;;;;;;1.60;1.40;;;2.30;98.20;;;;;;4988629;28;21033;-72
2022/12/04 08:15:51;;;;;;;1.70;1.60;;;2.40;98.20;;;;;;4985756;28;20464;-72
2022/12/04 08:18:18;;;;;;;1.67;1.50;;;2.40;98.20;;;;;;4986783;28;20681;-72
2022/12/04 08:20:45;;;;;;;1.70;1.50;;;2.40;98.20;;;;;;4989083;28;20484;-73
2022/12/04 08:23:11;;;;;;;1.70;1.50;;;2.40;98.20;;;;;;4986418;28;20471;-73
2022/12/04 08:25:39;;;;;;;1.67;1.50;;;2.40;98.20;;;;;;4987271;28;20489;-74
2022/12/04 08:28:06;;;;;;;1.67;1.47;;;2.40;98.20;;;;;;4985600;28;21028;-73
2022/12/04 08:30:33;;;;;;;1.70;1.50;;;2.40;98.20;;;;;;4989092;28;20486;-73
2022/12/04 08:33:01;;;;;;;1.63;1.40;;;2.50;98.20;;;;;;4986290;28;20468;-73
2022/12/04 08:35:28;;;;;;;1.67;1.50;;;2.50;98.20;;;;;;4987723;28;20524;-75
2022/12/04 08:37:55;;;;;;;1.70;1.50;;;2.50;98.20;;;;;;4988794;28;20481;-74
2022/12/04 08:40:23;;;;;;;1.63;1.40;;;2.50;98.20;;;;;;4988833;28;20468;-73
2022/12/04 08:42:49;;;;;;;1.63;1.40;;;2.40;98.20;;;;;;4985288;28;20886;-73
2022/12/04 08:45:17;;;;;;;1.70;1.60;;;2.40;98.20;;;;;;4983985;28;20485;-73
2022/12/04 08:47:43;;;;;;;1.70;1.50;;;2.40;98.20;;;;;;4986432;28;20564;-74
2022/12/04 08:50:12;;;;;;;1.60;1.40;;;2.40;98.20;;;;;;4987839;28;20457;-73
2022/12/04 08:52:39;;;;;;;1.67;1.43;;;2.30;98.20;;;;;;4988365;28;20574;-73
2022/12/04 08:55:06;;;;;;;1.63;1.40;;;2.40;98.20;;;;;;4986651;28;20462;-73
2022/12/04 08:57:33;;;;;;;1.63;1.50;;;2.30;98.20;;;;;;4985917;28;20969;-73
2022/12/04 09:00:00;;;;;;;1.63;1.40;;;2.40;98.20;;;;;;4985602;28;21027;-74
2022/12/04 09:02:27;;;;;;;1.63;1.40;;;2.40;98.20;;;;;;4985692;28;20949;-73
2022/12/04 09:04:54;;;;;;;1.70;1.53;;;2.40;98.20;;;;;;4986499;28;20889;-73
2022/12/04 09:07:22;;;;;;;1.70;1.60;;;2.30;98.20;;;;;;4984224;28;20547;-73
2022/12/04 09:09:49;;;;;;;1.60;1.50;;;2.30;98.20;;;;;;4983863;28;20461;-74
2022/12/04 09:12:16;;;;;;;1.70;1.50;;;2.30;98.20;;;;;;4983873;28;20469;-74
2022/12/04 09:14:43;;;;;;;1.67;1.40;;;2.20;98.20;;;;;;4984466;28;20468;-73
2022/12/04 09:17:10;;;;;;;1.70;1.50;;;2.20;98.20;;;;;;4975892;28;20512;-73
2022/12/04 09:19:36;;;;;;;1.70;1.57;;;2.30;98.20;;;;;;4986520;28;20477;-75
2022/12/04 09:22:03;;;;;;;1.67;1.40;;;2.30;98.20;;;;;;4986913;28;20568;-74
2022/12/04 09:24:31;;;;;;;1.63;1.40;;;2.30;98.20;;;;;;4989443;28;20495;-73
2022/12/04 09:26:59;;;;;;;1.63;1.50;;;2.30;98.20;;;;;;4988007;28;20472;-73
2022/12/04 09:29:26;;;;;;;1.67;1.47;;;2.40;98.20;;;;;;4989116;28;20484;-74
2022/12/04 09:31:53;;;;;;;1.70;1.60;;;2.40;98.20;;;;;;4987018;28;20473;-74
2022/12/04 09:34:20;;;;;;;1.70;1.50;;;2.40;98.20;;;;;;4989251;28;20488;-73
2022/12/04 09:36:46;;;;;;;1.60;1.40;;;2.40;98.20;;;;;;4985819;28;20461;-74
2022/12/04 09:39:14;;;;;;;1.60;1.40;;;2.40;98.20;;;;;;4984841;28;20493;-74
2022/12/04 09:42:21;;;;;;;1.70;1.50;;;2.40;98.20;;;;;;4988349;28;20475;-73
2022/12/04 09:44:54;;;;;;;1.70;1.50;;;2.40;98.20;;;;;;4987175;28;20700;-73
2022/12/04 09:47:27;;;;;;;1.70;1.60;;;2.40;98.20;;;;;;4985940;28;20465;-74
2022/12/04 09:49:57;;;;;;;1.70;1.50;;;2.40;98.20;;;;;;4988120;28;20480;-74
2022/12/04 09:52:40;;;;;;;1.70;1.50;;;2.40;98.20;;;;;;4990302;28;20457;-74
2022/12/04 09:55:13;;;;;;;1.70;1.50;;;2.30;98.20;;;;;;4988680;28;20868;-74
2022/12/04 09:57:45;;;;;;;1.63;1.40;;;2.30;98.20;;;;;;4988127;28;20528;-74
2022/12/04 10:00:15;;;;;;;1.70;1.50;;;2.40;98.20;;;;;;4989166;28;20805;-74
2022/12/04 10:02:45;;;;;;;1.70;1.53;;;2.30;98.20;;;;;;4986098;28;20472;-74
2022/12/04 10:05:18;;;;;;;1.70;1.53;;;2.30;98.20;;;;;;4989070;28;20523;-74
2022/12/04 10:07:54;;;;;;;1.60;1.50;;;2.30;98.20;;;;;;4989158;28;20535;-73
2022/12/04 10:10:35;;;;;;;1.70;1.50;;;2.30;98.20;;;;;;4990300;28;20457;-74
2022/12/04 10:13:18;;;;;;;1.67;1.47;;;2.40;98.20;;;;;;4989357;28;20461;-74
2022/12/04 10:15:51;;;;;;;1.70;1.50;;;2.40;98.20;;;;;;4989585;28;20461;-74
2022/12/04 10:18:32;;;;;;;1.60;1.50;;;2.40;98.20;;;;;;4987634;28;20575;-74
2022/12/04 10:23:38;;;;;;;1.63;1.40;;;2.40;98.20;;;;;;5006164;28;20514;-73
2022/12/04 10:26:09;;;;;;;1.67;1.40;;;2.40;98.20;;;;;;5004425;28;20489;-74
2022/12/04 10:28:40;;;;;;;4.90;4.60;;;2.40;98.20;;;;;;5010599;28;21030;-75
2022/12/04 10:31:13;;;;;;;1.63;1.50;;;2.40;98.20;;;;;;5004394;28;20791;-74
2022/12/04 10:33:43;;;;;;;1.70;1.50;;;2.50;98.20;;;;;;4999638;28;20464;-74
2022/12/04 10:36:14;;;;;;;1.67;1.50;;;2.50;98.20;;;;;;5003530;28;20456;-74
2022/12/04 10:38:46;;;;;;;1.63;1.40;;;2.50;98.20;;;;;;4992187;28;20469;-75
2022/12/04 10:41:21;;;;;;;1.60;1.43;;;2.60;98.20;;;;;;4993565;28;20511;-74
2022/12/04 10:43:51;;;;;;;1.60;1.40;;;2.60;98.20;;;;;;5004939;28;20459;-74
2022/12/04 10:46:22;;;;;;;1.60;1.40;;;2.60;98.20;;;;;;5000377;28;20515;-74
2022/12/04 10:48:52;;;;;;;1.70;1.53;;;2.60;98.20;;;;;;5001341;28;21255;-75
2022/12/04 10:51:21;;;;;;;1.70;1.50;;;2.60;98.20;;;;;;4995790;28;20495;-74
2022/12/04 10:53:49;;;;;;;1.77;1.67;;;2.60;98.20;;;;;;4997895;28;20916;-75
2022/12/04 10:56:17;;;;;;;1.70;1.60;;;2.60;98.20;;;;;;4996129;28;20457;-75
2022/12/04 10:58:57;;;;;;;1.70;1.60;;;2.60;98.20;;;;;;4980793;28;20462;-76
2022/12/04 11:01:24;;;;;;;1.70;1.50;;;2.70;98.20;;;;;;4993674;28;20905;-75
2022/12/04 11:04:00;;;;;;;1.63;1.40;;;2.80;98.20;;;;;;5003955;28;20976;-74
2022/12/04 11:06:27;;;;;;;1.70;1.50;;;2.80;98.20;;;;;;5005589;28;20494;-74
2022/12/04 11:08:55;;;;;;;1.60;1.40;;;2.80;98.20;;;;;;5003820;28;20473;-75
2022/12/04 11:11:26;;;;;;;1.70;1.50;;;2.80;98.20;;;;;;4992209;28;20683;-75
2022/12/04 11:14:03;;;;;;;1.60;1.50;;;2.70;98.20;;;;;;4989169;28;21016;-74
2022/12/04 11:16:34;;;;;;;1.70;1.50;;;2.70;98.20;;;;;;4998352;28;20456;-75
2022/12/04 11:19:01;;;;;;;1.63;1.40;;;2.70;98.20;;;;;;5005374;28;20524;-74
2022/12/04 11:21:30;;;;;;;1.70;1.40;;;2.60;98.20;;;;;;4998739;28;20494;-74
2022/12/04 11:23:57;;;;;;;1.60;1.40;;;2.60;98.20;;;;;;4990261;28;20461;-74
2022/12/04 11:26:32;;;;;;;1.60;1.40;;;2.70;98.20;;;;;;4993359;28;21079;-74
2022/12/04 11:29:01;;;;;;;1.60;1.50;;;2.80;98.20;;;;;;4996436;28;20503;-75
2022/12/04 11:31:30;;;;;;;1.70;1.40;;;2.80;98.20;;;;;;5001710;28;20476;-74
2022/12/04 11:34:01;;;;;;;1.70;1.40;;;2.70;98.20;;;;;;4990337;28;20461;-74
2022/12/04 11:36:31;;;;;;;1.67;1.50;;;2.70;98.20;;;;;;5001104;28;20459;-75
2022/12/04 11:39:06;;;;;;;1.70;1.60;;;2.70;98.20;;;;;;5004057;28;20465;-73
2022/12/04 11:41:33;;;;;;;1.70;1.40;;;2.80;98.20;;;;;;4998570;28;20867;-74
2022/12/04 11:44:02;;;;;;;1.70;1.60;;;2.80;98.20;;;;;;4987434;28;20471;-73
2022/12/04 11:46:30;;;;;;;1.77;1.67;;;2.80;98.20;;;;;;4994390;28;20487;-73
2022/12/04 11:48:58;;;;;;;1.63;1.40;;;2.80;98.20;;;;;;4995905;28;20532;-74
2022/12/04 11:51:34;;;;;;;1.70;1.60;;;2.80;98.20;;;;;;4998776;28;20484;-74
2022/12/04 11:54:08;;;;;;;1.70;1.40;;;2.80;98.20;;;;;;5006457;28;20464;-73
2022/12/04 11:56:39;;;;;;;1.70;1.60;;;2.80;98.20;;;;;;4995570;28;20452;-73
2022/12/04 11:59:25;;;;;;;1.63;1.47;;;2.80;98.20;;;;;;5001870;28;20468;-74
2022/12/04 12:01:59;;;;;;;1.60;1.40;;;2.90;98.20;;;;;;4997523;28;20460;-73
2022/12/04 12:04:54;;;;;;;1.90;1.70;;;2.90;98.20;;;;;;5004175;28;20891;-73
2022/12/04 12:07:34;;;;;;;1.70;1.50;;;3.00;98.20;;;;;;4989063;28;20466;-73
2022/12/04 12:10:06;;;;;;;1.67;1.47;;;3.00;98.20;;;;;;5004944;28;20480;-73
2022/12/04 12:12:43;;;;;;;4.27;3.97;;;2.90;98.20;;;;;;4993215;28;20467;-75
2022/12/04 12:15:19;;;;;;;1.70;1.40;;;2.90;98.20;;;;;;5001443;28;20564;-74
2022/12/04 12:17:54;;;;;;;2.47;2.27;;;2.90;98.20;;;;;;5001472;28;20525;-72
2022/12/04 12:20:26;;;;;;;1.67;1.40;;;2.90;98.20;;;;;;4989533;28;20476;-72
2022/12/04 12:23:22;;;;;;;1.70;1.60;;;2.90;98.20;;;;;;5001124;28;20921;-73
2022/12/04 12:26:00;;;;;;;1.60;1.40;;;2.90;98.20;;;;;;4992980;28;20924;-73
2022/12/04 12:28:41;;;;;;;2.00;1.80;;;3.00;98.20;;;;;;4992956;28;20465;-74
2022/12/04 12:31:29;;;;;;;1.70;1.60;;;3.00;98.20;;;;;;5003068;28;20486;-73
2022/12/04 12:34:00;;;;;;;1.60;1.50;;;3.10;98.20;;;;;;4994036;28;20457;-75
2022/12/04 12:36:31;;;;;;;1.60;1.40;;;3.20;98.20;;;;;;4989291;28;20763;-77
2022/12/04 12:39:03;;;;;;;1.60;1.40;;;3.20;98.20;;;;;;4992589;28;20860;-75
2022/12/04 12:41:35;;;;;;;1.70;1.43;;;3.30;98.20;;;;;;4997224;28;20475;-75
2022/12/04 12:44:07;;;;;;;1.60;1.40;;;3.20;98.20;;;;;;4998157;28;20875;-76
2022/12/04 12:46:39;;;;;;;1.70;1.60;;;3.20;98.20;;;;;;4995584;28;20484;-73
2022/12/04 12:49:12;;;;;;;2.27;2.07;;;3.10;98.20;;;;;;4993425;28;20496;-76
2022/12/04 12:51:45;;;;;;;1.60;1.40;;;3.20;98.20;;;;;;4991952;28;20984;-75
2022/12/04 12:54:21;;;;;;;1.60;1.40;;;3.20;98.20;;;;;;5006277;28;20471;-75
2022/12/04 12:56:55;;;;;;;1.63;1.40;;;3.20;98.20;;;;;;4992974;28;20467;-75
2022/12/04 12:59:26;;;;;;;1.70;1.50;;;3.20;98.20;;;;;;5003022;28;20498;-77
2022/12/04 13:01:58;;;;;;;1.67;1.40;;;3.20;98.20;;;;;;4996314;28;20460;-76
2022/12/04 13:04:34;;;;;;;1.60;1.40;;;3.30;98.20;;;;;;4999679;28;20456;-76
2022/12/04 13:07:12;;;;;;;2.37;2.17;;;3.30;98.20;;;;;;4986879;28;20853;-73
2022/12/04 13:09:45;;;;;;;1.70;1.43;;;3.40;98.20;;;;;;4989165;28;20582;-76
2022/12/04 13:12:15;;;;;;;1.67;1.50;;;3.40;98.20;;;;;;4998950;28;20461;-76
2022/12/04 13:14:42;;;;;;;1.63;1.40;;;3.40;98.20;;;;;;4995405;28;20453;-75
2022/12/04 13:17:15;;;;;;;1.67;1.40;;;3.30;98.20;;;;;;4986717;28;20464;-76
2022/12/04 13:19:47;;;;;;;1.67;1.47;;;3.40;98.20;;;;;;4993037;28;20977;-76
2022/12/04 13:22:22;;;;;;;1.60;1.43;;;3.40;98.20;;;;;;4986602;28;20468;-76
2022/12/04 13:25:02;;;;;;;1.70;1.40;;;3.40;98.20;;;;;;4992709;28;20459;-76
2022/12/04 13:27:41;;;;;;;1.63;1.40;;;3.30;98.20;;;;;;4992865;28;20456;-75
2022/12/04 13:30:16;;;;;;;1.60;1.40;;;3.30;98.20;;;;;;4996400;28;20495;-75
2022/12/04 13:33:12;;;;;;;1.67;1.40;;;3.40;98.20;;;;;;4989495;28;20460;-75
2022/12/04 13:36:00;;;;;;;1.60;1.40;;;3.40;98.20;;;;;;4990338;28;20461;-75
2022/12/04 13:38:37;;;;;;;1.80;1.70;;;3.40;98.20;;;;;;4995642;28;20950;-75
2022/12/04 13:41:06;;;;;;;1.67;1.40;;;3.40;98.20;;;;;;4985359;28;20489;-74
2022/12/04 13:43:44;;;;;;;1.67;1.40;;;3.40;98.20;;;;;;4987995;28;20954;-74
2022/12/04 13:46:26;;;;;;;1.60;1.40;;;3.40;98.20;;;;;;4988685;28;20483;-73
2022/12/04 13:48:55;;;;;;;1.70;1.60;;;3.40;98.20;;;;;;4988452;28;20457;-74
2022/12/04 13:51:33;;;;;;;1.70;1.50;;;3.40;98.20;;;;;;4983871;28;20473;-74
2022/12/04 13:54:03;;;;;;;1.70;1.50;;;3.40;98.20;;;;;;4975789;28;20601;-74
2022/12/04 13:56:31;;;;;;;1.67;1.40;;;3.40;98.20;;;;;;4980784;28;20645;-74
2022/12/04 13:59:03;;;;;;;1.63;1.37;;;3.40;98.20;;;;;;4981199;28;20547;-75
2022/12/04 14:01:37;;;;;;;1.67;1.50;;;3.40;98.20;;;;;;4986422;28;20489;-75
2022/12/04 14:04:06;;;;;;;1.60;1.40;;;3.40;98.20;;;;;;4985676;28;20469;-74
2022/12/04 14:06:37;;;;;;;1.77;1.67;;;3.40;98.20;;;;;;4983769;28;21017;-74
2022/12/04 14:09:06;;;;;;;1.63;1.40;;;3.40;98.20;;;;;;4986229;28;20460;-74
2022/12/04 14:11:43;;;;;;;1.60;1.40;;;3.40;98.20;;;;;;4989870;28;20492;-74
2022/12/04 14:14:25;;;;;;;1.70;1.50;;;3.40;98.20;;;;;;4993242;28;20512;-74
2022/12/04 14:16:53;;;;;;;1.70;1.50;;;3.40;98.20;;;;;;4988382;28;20973;-74
2022/12/04 14:19:32;;;;;;;1.67;1.40;;;3.40;98.20;;;;;;4988134;28;20476;-74
2022/12/04 14:21:59;;;;;;;1.70;1.53;;;3.40;98.20;;;;;;4990194;28;20977;-74
2022/12/04 14:24:33;;;;;;;1.60;1.40;;;3.40;98.20;;;;;;4988143;28;20461;-73
2022/12/04 14:27:01;;;;;;;1.77;1.67;;;3.40;98.20;;;;;;4988086;28;20493;-72
2022/12/04 14:29:37;;;;;;;1.63;1.40;;;3.40;98.20;;;;;;4986147;28;20468;-72
2022/12/04 14:32:14;;;;;;;1.63;1.30;;;3.40;98.20;;;;;;4987436;28;20835;-72
2022/12/04 14:34:46;;;;;;;1.67;1.40;;;3.40;98.20;;;;;;4985754;28;20465;-73
2022/12/04 14:37:23;;;;;;;1.70;1.43;;;3.40;98.20;;;;;;4989465;28;20464;-72
2022/12/04 14:39:51;;;;;;;1.60;1.40;;;3.40;98.20;;;;;;4984866;28;20531;-72
2022/12/04 14:42:24;;;;;;;1.63;1.40;;;3.40;98.20;;;;;;4984983;28;20457;-72
2022/12/04 14:44:54;;;;;;;1.70;1.50;;;3.40;98.20;;;;;;4987336;28;20615;-73
2022/12/04 14:47:38;;;;;;;1.60;1.40;;;3.40;98.20;;;;;;4987893;28;21022;-72
2022/12/04 14:50:19;;;;;;;1.60;1.40;;;3.40;98.20;;;;;;4988322;28;20481;-73
2022/12/04 14:52:53;;;;;;;1.60;1.40;;;3.40;98.20;;;;;;4988462;28;20457;-74
2022/12/04 14:55:31;;;;;;;1.63;1.40;;;3.40;98.20;;;;;;4987831;28;20465;-73
2022/12/04 14:58:28;;;;;;;1.70;1.50;;;3.40;98.20;;;;;;4987209;28;20461;-72
2022/12/04 15:00:50;;;;;;;1.67;1.30;;;3.40;98.20;;;;;;4987016;28;20478;-73
2022/12/04 15:03:16;;;;;;;2.17;1.97;;;3.40;98.20;;;;;;4990766;28;20464;-72
2022/12/04 15:05:45;;;;;;;1.63;1.40;;;3.40;98.20;;;;;;4986320;28;20476;-73
2022/12/04 15:08:13;;;;;;;2.37;2.17;;;3.40;98.20;;;;;;4988416;28;20460;-72
2022/12/04 15:13:34;;;;;;;1.67;1.50;;;3.40;98.20;;;;;;4983156;28;20444;-73
2022/12/04 15:16:09;;;;;;;1.63;1.50;;;3.40;98.20;;;;;;4986639;28;20456;-73
2022/12/04 15:18:36;;;;;;;1.60;1.30;;;3.40;98.20;;;;;;4988348;28;20464;-72
2022/12/04 15:21:06;;;;;;;1.63;1.50;;;3.40;98.20;;;;;;4988214;28;20484;-74
2022/12/04 15:23:37;;;;;;;1.60;1.40;;;3.40;98.20;;;;;;4985628;28;20743;-73
2022/12/04 15:26:09;;;;;;;1.63;1.50;;;3.40;98.20;;;;;;4989751;28;20473;-74
2022/12/04 15:28:42;;;;;;;1.60;1.40;;;3.40;98.20;;;;;;4988543;28;20465;-75
2022/12/04 15:31:15;;;;;;;1.70;1.40;;;3.40;98.20;;;;;;4985434;28;20542;-72
2022/12/04 15:33:44;;;;;;;1.60;1.40;;;3.40;98.20;;;;;;4983669;28;20856;-72
2022/12/04 15:36:17;;;;;;;1.60;1.40;;;3.40;98.20;;;;;;4988386;28;20466;-72
2022/12/04 15:38:44;;;;;;;1.70;1.50;;;3.40;98.20;;;;;;4985021;28;20468;-72
2022/12/04 15:41:29;;;;;;;1.60;1.40;;;3.40;98.20;;;;;;4986318;28;20488;-72
2022/12/04 15:43:56;;;;;;;1.70;1.40;;;3.40;98.20;;;;;;4990535;28;21002;-73
2022/12/04 15:46:25;;;;;;;1.63;1.40;;;3.40;98.20;;;;;;4986306;28;20489;-72
2022/12/04 15:48:52;;;;;;;1.70;1.50;;;3.50;98.20;;;;;;4987440;28;20467;-74
2022/12/04 15:51:21;;;;;;;1.70;1.50;;;3.40;98.20;;;;;;4988073;28;20489;-73
2022/12/04 15:53:48;;;;;;;1.60;1.40;;;3.40;98.20;;;;;;4987794;28;20970;-73
2022/12/04 15:56:18;;;;;;;1.60;1.40;;;3.40;98.20;;;;;;4981862;28;20464;-72
2022/12/04 15:58:54;;;;;;;1.70;1.50;;;3.40;98.20;;;;;;4985720;28;20465;-72
2022/12/04 16:01:21;;;;;;;1.60;1.40;;;3.40;98.20;;;;;;4984390;28;20540;-72
2022/12/04 16:03:50;;;;;;;1.70;1.50;;;3.40;98.20;;;;;;4984822;28;20457;-72
2022/12/04 16:06:21;;;;;;;1.70;1.50;;;3.40;98.20;;;;;;4982989;28;20499;-72
2022/12/04 16:08:50;;;;;;;1.60;1.40;;;3.40;98.20;;;;;;4985303;28;20849;-73
2022/12/04 16:11:29;;;;;;;1.80;1.70;;;3.40;98.20;;;;;;4985508;28;20488;-72
2022/12/04 16:14:16;;;;;;;1.70;1.50;;;3.40;98.20;;;;;;4988152;28;20470;-72
2022/12/04 16:16:45;;;;;;;1.60;1.40;;;3.40;98.20;;;;;;4975616;28;20484;-72
2022/12/04 16:19:16;;;;;;;1.70;1.50;;;3.50;98.20;;;;;;4988167;28;20470;-72
2022/12/04 16:21:45;;;;;;;1.67;1.40;;;3.50;98.20;;;;;;4983898;28;20839;-72
2022/12/04 16:24:12;;;;;;;4.03;3.73;;;3.50;98.20;;;;;;4984212;28;20459;-72
2022/12/04 16:26:40;;;;;;;1.60;1.40;;;3.50;98.20;;;;;;4983117;28;20536;-72
2022/12/04 16:29:06;;;;;;;1.67;1.43;;;3.50;98.20;;;;;;4986276;28;20465;-73
2022/12/04 16:31:34;;;;;;;1.70;1.50;;;3.50;98.20;;;;;;4984460;28;20484;-72
2022/12/04 16:34:00;;;;;;;1.63;1.43;;;3.50;98.20;;;;;;4985080;28;20864;-72
2022/12/04 16:36:27;;;;;;;1.70;1.50;;;3.50;98.20;;;;;;4984576;28;20472;-73
2022/12/04 16:38:56;;;;;;;1.63;1.40;;;3.50;98.20;;;;;;4987766;28;20476;-73
2022/12/04 16:41:23;;;;;;;1.67;1.50;;;3.50;98.20;;;;;;4983526;28;20490;-72
2022/12/04 16:43:58;;;;;;;1.60;1.30;;;3.50;98.20;;;;;;4984035;28;21118;-72
2022/12/04 16:46:27;;;;;;;1.60;1.40;;;3.50;98.20;;;;;;4982558;28;20491;-72
2022/12/04 16:48:54;;;;;;;1.70;1.43;;;3.50;98.20;;;;;;4986381;28;20469;-72
2022/12/04 16:51:23;;;;;;;1.60;1.40;;;3.50;98.20;;;;;;4984966;28;20489;-72
2022/12/04 16:53:51;;;;;;;1.60;1.40;;;3.50;98.20;;;;;;4985094;28;20465;-72
2022/12/04 16:56:19;;;;;;;1.67;1.40;;;3.50;98.20;;;;;;4972534;28;20469;-72
2022/12/04 16:58:46;;;;;;;1.63;1.50;;;3.50;98.20;;;;;;4979457;28;20460;-72
2022/12/04 17:01:21;;;;;;;1.70;1.50;;;3.50;98.20;;;;;;4981538;28;20484;-73
2022/12/04 17:03:47;;;;;;;1.60;1.33;;;3.50;98.20;;;;;;4979339;28;20468;-73
2022/12/04 17:06:14;;;;;;;1.60;1.40;;;3.60;98.20;;;;;;4979297;28;20468;-72
2022/12/04 17:08:41;;;;;;;2.30;2.10;;;3.60;98.20;;;;;;4982043;28;20476;-73
2022/12/04 17:11:12;;;;;;;1.67;1.40;;;3.60;98.20;;;;;;4979312;28;20854;-73
2022/12/04 17:13:40;;;;;;;1.63;1.40;;;3.60;98.20;;;;;;4979083;28;21004;-72
2022/12/04 17:16:07;;;;;;;1.70;1.50;;;3.60;98.20;;;;;;4976262;28;21156;-72
2022/12/04 17:18:34;;;;;;;1.70;1.57;;;3.60;98.20;;;;;;4979494;28;21061;-72
2022/12/04 17:21:05;;;;;;;1.60;1.40;;;3.60;98.20;;;;;;4978818;28;20542;-72
2022/12/04 17:23:32;;;;;;;1.70;1.40;;;3.60;98.20;;;;;;4979905;28;20469;-73
2022/12/04 17:26:01;;;;;;;1.67;1.40;;;3.60;98.20;;;;;;4976825;28;20465;-70
2022/12/04 17:28:29;;;;;;;1.60;1.40;;;3.60;98.20;;;;;;4981148;28;20493;-70
2022/12/04 17:30:57;;;;;;;1.63;1.40;;;3.60;98.20;;;;;;4981127;28;20558;-70
2022/12/04 17:33:24;;;;;;;1.63;1.40;;;3.60;98.20;;;;;;4981455;28;20856;-70
2022/12/04 17:35:52;;;;;;;1.70;1.50;;;3.70;98.20;;;;;;4980599;28;20461;-72
2022/12/04 17:38:20;;;;;;;1.63;1.40;;;3.70;98.20;;;;;;4985811;28;20527;-72
2022/12/04 17:40:58;;;;;;;1.70;1.60;;;3.70;98.20;;;;;;4980803;28;20495;-72
2022/12/04 17:43:24;;;;;;;1.60;1.40;;;3.70;98.20;;;;;;4987016;28;20525;-72
2022/12/04 17:45:51;;;;;;;1.60;1.40;;;3.70;98.20;;;;;;4983164;28;20452;-71
2022/12/04 17:48:19;;;;;;;1.63;1.40;;;3.70;98.20;;;;;;4983186;28;20488;-72
2022/12/04 17:50:46;;;;;;;1.77;1.67;;;3.70;98.20;;;;;;4983129;28;20504;-72
2022/12/04 17:53:13;;;;;;;1.70;1.40;;;3.70;98.20;;;;;;4985583;28;20471;-71
2022/12/04 17:55:40;;;;;;;1.70;1.50;;;3.70;98.20;;;;;;4983145;28;20552;-71
2022/12/04 17:58:07;;;;;;;1.63;1.40;;;3.70;98.20;;;;;;4981974;28;20948;-71
2022/12/04 18:00:33;;;;;;;1.70;1.50;;;3.70;98.20;;;;;;4982946;28;20721;-71
2022/12/04 18:03:00;;;;;;;1.60;1.40;;;3.70;98.20;;;;;;4983936;28;20468;-71
2022/12/04 18:05:30;;;;;;;1.60;1.37;;;3.70;98.20;;;;;;4986028;28;20944;-71
2022/12/04 18:07:56;;;;;;;1.70;1.57;;;3.70;98.20;;;;;;4983324;28;21060;-70
2022/12/04 18:10:23;;;;;;;1.60;1.40;;;3.70;98.20;;;;;;4984300;28;20503;-71
2022/12/04 18:12:50;;;;;;;1.70;1.50;;;3.70;98.20;;;;;;4981032;28;20468;-71
2022/12/04 18:15:17;;;;;;;1.60;1.40;;;3.70;98.20;;;;;;4984421;28;20472;-71
2022/12/04 18:17:43;;;;;;;1.60;1.40;;;3.70;98.20;;;;;;4980327;28;20461;-71
2022/12/04 18:20:11;;;;;;;2.53;2.33;;;3.70;98.20;;;;;;4982386;28;20490;-71
2022/12/04 18:22:39;;;;;;;1.67;1.40;;;3.70;98.20;;;;;;4982659;28;20469;-71
2022/12/04 18:25:07;;;;;;;1.60;1.40;;;3.70;98.20;;;;;;4983921;28;20497;-71
2022/12/04 18:27:34;;;;;;;1.60;1.40;;;3.70;98.20;;;;;;4981285;28;20563;-71
2022/12/04 18:30:01;;;;;;;1.60;1.40;;;3.70;98.20;;;;;;4985486;28;20889;-71
2022/12/04 18:32:28;;;;;;;1.70;1.50;;;3.70;98.20;;;;;;4982811;28;20469;-71
2022/12/04 18:34:55;;;;;;;1.60;1.40;;;3.70;98.20;;;;;;4984327;28;20472;-71
2022/12/04 18:37:22;;;;;;;1.60;1.40;;;3.70;98.20;;;;;;4984343;28;20465;-71
2022/12/04 18:39:51;;;;;;;1.60;1.40;;;3.70;98.20;;;;;;4982645;28;21056;-71
2022/12/04 18:42:18;;;;;;;1.60;1.40;;;3.70;98.20;;;;;;4983358;28;20476;-72
2022/12/04 18:44:46;;;;;;;1.60;1.40;;;3.70;98.20;;;;;;4983013;28;20472;-71
2022/12/04 18:47:13;;;;;;;1.70;1.60;;;3.70;98.20;;;;;;4980765;28;20531;-71
2022/12/04 18:49:39;;;;;;;1.67;1.40;;;3.70;98.20;;;;;;4982674;28;20488;-71
2022/12/04 18:52:06;;;;;;;1.60;1.40;;;3.70;98.20;;;;;;4983329;28;20468;-73
2022/12/04 18:54:34;;;;;;;1.60;1.30;;;3.70;98.20;;;;;;4981886;28;20977;-73
2022/12/04 18:57:02;;;;;;;1.70;1.53;;;3.70;98.20;;;;;;4982729;28;21047;-70
2022/12/04 18:59:29;;;;;;;1.70;1.40;;;3.70;98.20;;;;;;4981684;28;20460;-70
2022/12/04 19:01:56;;;;;;;1.60;1.40;;;3.70;98.20;;;;;;4982036;28;20472;-71
2022/12/04 19:04:24;;;;;;;1.60;1.40;;;3.70;98.20;;;;;;4982817;28;20468;-70
2022/12/04 19:06:53;;;;;;;1.63;1.40;;;3.70;98.20;;;;;;4981400;28;20465;-73
2022/12/04 19:09:22;;;;;;;1.60;1.40;;;3.70;98.20;;;;;;4983951;28;20465;-73
2022/12/04 19:11:49;;;;;;;1.63;1.40;;;3.70;98.20;;;;;;4979521;28;20516;-73
2022/12/04 19:14:19;;;;;;;1.60;1.40;;;3.70;98.20;;;;;;4981909;28;20823;-74
2022/12/04 19:16:46;;;;;;;1.60;1.40;;;3.70;98.20;;;;;;4977570;28;20567;-74